KMCO/MCO METAR and TAF weather

Enter ICAO airport designator
Station Type Date Time Source
KMCO METAR 2024/04/23 04:53 UTC NOAA

KMCO 230453Z 04008KT 10SM CLR 16/11 A3016 RMK AO2 SLP210 T01610106 402560156


Station Type Date Time Source
KMCO Decoded METAR 2024/04/23 04:53 UTC NOAA

ORLANDO INTERNATIONAL AIRPORT , FL, United States (KMCO) 28-25N 81-20W 29M
Apr 23, 2024 - 12:53 AM EDT / 2024.04.23 0453 UTC
Wind: from the NE (040 degrees) at 9 MPH (8 KT):0
Visibility: 10 mile(s):0
Sky conditions: clear
Temperature: 61.0 F (16.1 C)
Dew Point: 51.1 F (10.6 C)
Relative Humidity: 69%
Pressure (altimeter): 30.16 in. Hg (1021 hPa)
ob: KMCO 230453Z 04008KT 10SM CLR 16/11 A3016 RMK AO2 SLP210 T01610106 402560156
cycle: 5

Station Type Date Time Source
KMCO TAF 2024/04/23 06:22 UTC NOAA